Time;durP1;ratioP1;P1;durP2;ratioP2;P2;SDS_P1;SDS_P2;PMS_P1;PMS_P2;Temp;Humidity;BMP_temperature;BMP_pressure;BME280_temperature;BME280_humidity;BME280_pressure;Samples;Min_cycle;Max_cycle;Signal;HPM_P1;HPM_P2
2023/10/13 06:28:41;;;;;;;;;13.00;11.00;;;;;;;;6305946;22;45598;-72
2023/10/13 06:31:07;;;;;;;;;16.67;15.00;;;;;;;;6306142;22;45348;-72
2023/10/13 06:33:33;;;;;;;;;14.00;14.00;;;;;;;;6306169;22;45278;-72
2023/10/13 06:35:59;;;;;;;;;17.67;13.67;;;;;;;;6278166;22;46445;-72
2023/10/13 06:38:24;;;;;;;;;17.00;15.33;;;;;;;;6277338;22;47026;-72
2023/10/13 06:40:52;;;;;;;;;15.67;13.00;;;;;;;;6305231;22;45351;-72
2023/10/13 06:43:21;;;;;;;;;0.00;0.00;;;;;;;;6306528;22;45438;-72
2023/10/13 06:45:56;;;;;;;;;14.00;14.00;;;;;;;;6305854;22;45283;-72
2023/10/13 06:48:22;;;;;;;;;14.00;14.00;;;;;;;;6305681;22;45314;-71
2023/10/13 06:50:48;;;;;;;;;17.67;17.67;;;;;;;;6306209;22;45239;-72
2023/10/13 06:53:13;;;;;;;;;11.00;11.00;;;;;;;;6305908;22;45270;-72
2023/10/13 06:55:39;;;;;;;;;18.00;16.67;;;;;;;;6306061;22;45261;-72
2023/10/13 06:58:06;;;;;;;;;17.33;16.33;;;;;;;;6306008;22;46101;-72
2023/10/13 07:00:34;;;;;;;;;12.00;12.00;;;;;;;;6305016;22;45345;-72
2023/10/13 07:03:06;;;;;;;;;15.67;14.67;;;;;;;;6305693;22;45647;-72
2023/10/13 07:05:37;;;;;;;;;13.33;13.33;;;;;;;;6305471;22;45407;-72
2023/10/13 07:08:04;;;;;;;;;16.33;16.33;;;;;;;;6304839;22;46061;-72
2023/10/13 07:10:30;;;;;;;;;19.33;17.00;;;;;;;;6277225;22;45291;-69
2023/10/13 07:12:59;;;;;;;;;17.33;15.00;;;;;;;;6305974;22;45406;-69
2023/10/13 07:15:27;;;;;;;;;15.67;15.33;;;;;;;;6305707;22;45340;-72
2023/10/13 07:17:59;;;;;;;;;15.67;14.67;;;;;;;;6305814;22;45238;-72
2023/10/13 07:20:24;;;;;;;;;15.00;14.00;;;;;;;;6280420;22;45370;-72
2023/10/13 07:23:03;;;;;;;;;14.67;13.33;;;;;;;;6316668;22;45251;-71
2023/10/13 07:25:37;;;;;;;;;15.33;14.00;;;;;;;;6339591;22;45361;-71
2023/10/13 07:28:03;;;;;;;;;16.00;15.33;;;;;;;;6310643;22;47466;-72
2023/10/13 07:30:30;;;;;;;;;15.00;12.33;;;;;;;;6340229;22;45085;-71
2023/10/13 07:32:59;;;;;;;;;14.67;13.67;;;;;;;;6339716;22;45213;-72
2023/10/13 07:35:24;;;;;;;;;18.33;14.67;;;;;;;;6339561;22;45907;-72
2023/10/13 07:37:52;;;;;;;;;17.67;15.00;;;;;;;;6338852;22;46974;-72
2023/10/13 07:42:52;;;;;;;;;21.00;20.00;;;;;;;;6337858;22;45230;-72
2023/10/13 07:45:22;;;;;;;;;16.00;13.00;;;;;;;;6337090;22;45689;-72
2023/10/13 07:47:47;;;;;;;;;19.33;17.33;;;;;;;;6310111;22;46082;-71
2023/10/13 07:50:12;;;;;;;;;15.00;13.00;;;;;;;;6338215;22;45291;-71
2023/10/13 07:52:40;;;;;;;;;17.00;16.00;;;;;;;;6338501;22;45559;-71
2023/10/13 07:55:13;;;;;;;;;16.67;13.67;;;;;;;;6310728;22;45642;-71
2023/10/13 07:57:54;;;;;;;;;18.33;16.00;;;;;;;;6311947;22;46860;-71
2023/10/13 08:00:28;;;;;;;;;17.33;14.33;;;;;;;;6339063;22;45452;-70
2023/10/13 08:05:58;;;;;;;;;13.00;12.00;;;;;;;;6337812;22;45576;-71
2023/10/13 08:08:25;;;;;;;;;16.00;12.67;;;;;;;;6337894;22;45672;-70
2023/10/13 08:10:55;;;;;;;;;13.67;13.67;;;;;;;;6311514;22;45514;-70
2023/10/13 08:13:20;;;;;;;;;15.00;13.00;;;;;;;;6312731;22;45346;-70
2023/10/13 08:15:49;;;;;;;;;13.67;13.33;;;;;;;;6312497;22;45534;-71
2023/10/13 08:18:30;;;;;;;;;12.67;12.00;;;;;;;;6340974;22;46143;-69
2023/10/13 08:21:02;;;;;;;;;15.00;11.33;;;;;;;;6340460;22;45331;-70
2023/10/13 08:23:57;;;;;;;;;16.67;12.00;;;;;;;;6338257;22;45474;-71
2023/10/13 08:28:57;;;;;;;;;15.00;14.33;;;;;;;;6340780;22;45780;-71
2023/10/13 08:31:25;;;;;;;;;18.00;13.00;;;;;;;;6340739;22;45302;-73
2023/10/13 08:33:57;;;;;;;;;12.67;11.67;;;;;;;;6341405;22;45384;-73
2023/10/13 08:36:29;;;;;;;;;16.67;15.33;;;;;;;;6341000;22;45223;-73
2023/10/13 08:38:55;;;;;;;;;14.33;14.33;;;;;;;;6312233;22;46092;-73
2023/10/13 08:43:52;;;;;;;;;15.33;12.67;;;;;;;;6341221;22;45327;-72
2023/10/13 08:46:28;;;;;;;;;13.67;13.67;;;;;;;;6341148;22;45285;-73
2023/10/13 08:49:04;;;;;;;;;16.00;11.67;;;;;;;;6339535;22;46241;-72
2023/10/13 08:51:43;;;;;;;;;9.33;9.33;;;;;;;;6341164;22;45211;-73
2023/10/13 08:54:18;;;;;;;;;14.00;12.00;;;;;;;;6341390;22;45311;-73
2023/10/13 08:56:47;;;;;;;;;9.75;9.75;;;;;;;;6340327;22;45196;-72
2023/10/13 08:59:22;;;;;;;;;12.33;10.33;;;;;;;;6340802;22;45092;-73
2023/10/13 09:04:22;;;;;;;;;11.33;10.00;;;;;;;;6341628;22;45345;-74
2023/10/13 09:06:57;;;;;;;;;9.25;9.25;;;;;;;;6312187;22;45947;-72
2023/10/13 09:12:14;;;;;;;;;12.67;9.00;;;;;;;;6290414;22;45271;-72
2023/10/13 09:14:44;;;;;;;;;15.00;11.33;;;;;;;;6341396;22;45232;-71
2023/10/13 09:19:57;;;;;;;;;9.00;7.67;;;;;;;;6340778;22;46143;-74
2023/10/13 09:22:36;;;;;;;;;10.50;10.00;;;;;;;;6340390;22;45265;-75
2023/10/13 09:25:02;;;;;;;;;9.33;9.33;;;;;;;;6341002;22;45321;-74
2023/10/13 09:27:28;;;;;;;;;6.00;5.00;;;;;;;;6339758;22;45381;-73
2023/10/13 09:29:58;;;;;;;;;9.25;9.25;;;;;;;;6340976;22;45777;-72
2023/10/13 09:32:23;;;;;;;;;8.00;6.75;;;;;;;;6340694;22;45358;-73
2023/10/13 09:34:50;;;;;;;;;12.00;12.00;;;;;;;;6341040;22;45263;-74
2023/10/13 09:37:20;;;;;;;;;10.50;10.50;;;;;;;;6338428;22;45397;-76
2023/10/13 09:39:48;;;;;;;;;11.25;8.50;;;;;;;;6340296;22;45268;-74
2023/10/13 09:42:15;;;;;;;;;11.00;10.00;;;;;;;;6340753;22;45373;-74
2023/10/13 09:44:40;;;;;;;;;11.25;9.50;;;;;;;;6312432;22;45307;-73
2023/10/13 09:47:16;;;;;;;;;10.75;10.00;;;;;;;;6340564;22;45501;-75
2023/10/13 09:49:49;;;;;;;;;8.50;8.50;;;;;;;;6339834;22;46289;-74
2023/10/13 09:52:25;;;;;;;;;10.00;9.00;;;;;;;;6340096;22;45363;-74
2023/10/13 09:55:23;;;;;;;;;9.00;9.00;;;;;;;;6341068;22;45254;-74
2023/10/13 09:57:57;;;;;;;;;11.00;8.50;;;;;;;;6227176;22;45423;-74
2023/10/13 10:00:35;;;;;;;;;7.75;7.75;;;;;;;;6339767;22;47009;-75
2023/10/13 10:03:15;;;;;;;;;15.50;12.50;;;;;;;;6312051;22;45222;-74
2023/10/13 10:05:59;;;;;;;;;11.25;9.00;;;;;;;;6312430;22;45274;-73
2023/10/13 10:08:33;;;;;;;;;12.25;6.75;;;;;;;;6339084;22;45266;-73
2023/10/13 10:11:28;;;;;;;;;10.50;8.00;;;;;;;;6340519;22;45847;-74
2023/10/13 10:14:04;;;;;;;;;16.25;10.75;;;;;;;;6200769;22;45297;-75
2023/10/13 10:16:46;;;;;;;;;13.50;11.00;;;;;;;;6341219;22;45310;-75
2023/10/13 10:19:11;;;;;;;;;18.25;12.50;;;;;;;;6340626;22;45413;-75
2023/10/13 10:21:41;;;;;;;;;10.75;10.75;;;;;;;;6339740;22;45320;-76
2023/10/13 10:24:30;;;;;;;;;11.40;9.60;;;;;;;;6311931;22;45256;-75
2023/10/13 10:26:55;;;;;;;;;13.50;10.50;;;;;;;;6340134;22;45146;-74
2023/10/13 10:29:20;;;;;;;;;10.50;9.50;;;;;;;;6340381;22;45194;-75
2023/10/13 10:31:46;;;;;;;;;12.25;11.00;;;;;;;;6341138;22;45307;-75
2023/10/13 10:34:18;;;;;;;;;10.25;10.25;;;;;;;;6340779;22;45246;-72
2023/10/13 10:36:46;;;;;;;;;10.50;8.75;;;;;;;;6338256;22;45198;-74
2023/10/13 10:39:12;;;;;;;;;1.80;1.80;;;;;;;;6340599;22;45239;-75
2023/10/13 10:44:33;;;;;;;;;9.40;8.80;;;;;;;;6340530;22;45211;-72
2023/10/13 10:47:08;;;;;;;;;10.40;9.80;;;;;;;;6340671;22;45306;-74
2023/10/13 10:49:37;;;;;;;;;17.80;11.00;;;;;;;;6310622;22;45433;-72
2023/10/13 10:52:04;;;;;;;;;8.60;7.60;;;;;;;;6310836;22;47545;-73
2023/10/13 10:54:32;;;;;;;;;8.20;6.80;;;;;;;;6339874;22;45167;-73
2023/10/13 10:57:10;;;;;;;;;9.20;8.60;;;;;;;;6312075;22;45308;-74
2023/10/13 10:59:37;;;;;;;;;10.60;10.00;;;;;;;;6340570;22;45369;-74
2023/10/13 11:02:03;;;;;;;;;13.40;10.60;;;;;;;;6312337;22;45225;-73
2023/10/13 11:04:33;;;;;;;;;12.75;10.75;;;;;;;;6340701;22;45230;-73
2023/10/13 11:06:59;;;;;;;;;11.40;11.40;;;;;;;;6311623;22;45301;-74
2023/10/13 11:12:23;;;;;;;;;9.60;9.40;;;;;;;;6339566;22;45302;-74
2023/10/13 11:14:59;;;;;;;;;9.80;9.80;;;;;;;;6311556;22;45196;-71
2023/10/13 11:17:41;;;;;;;;;9.80;8.20;;;;;;;;6340328;22;45124;-72
2023/10/13 11:20:17;;;;;;;;;8.40;8.40;;;;;;;;6340112;22;45116;-73
2023/10/13 11:22:47;;;;;;;;;10.60;10.00;;;;;;;;6341259;22;45218;-73
2023/10/13 11:25:19;;;;;;;;;9.20;9.20;;;;;;;;6342473;22;45312;-73
2023/10/13 11:30:19;;;;;;;;;12.40;10.80;;;;;;;;6340822;22;45235;-73
2023/10/13 11:32:45;;;;;;;;;9.00;6.60;;;;;;;;6341142;22;45251;-73
2023/10/13 11:35:20;;;;;;;;;11.75;9.50;;;;;;;;6341784;22;45265;-73
2023/10/13 11:37:55;;;;;;;;;10.40;8.20;;;;;;;;6311977;22;45267;-71
2023/10/13 11:40:43;;;;;;;;;10.60;8.40;;;;;;;;6340987;22;45231;-73
2023/10/13 11:43:05;;;;;;;;;11.40;9.80;;;;;;;;6339795;22;45495;-73
2023/10/13 11:45:35;;;;;;;;;10.00;10.00;;;;;;;;6341178;22;45218;-73
2023/10/13 11:48:01;;;;;;;;;10.25;10.25;;;;;;;;6340150;22;45286;-73
2023/10/13 11:50:32;;;;;;;;;12.00;10.50;;;;;;;;6341076;22;45348;-73
2023/10/13 11:52:58;;;;;;;;;13.40;10.80;;;;;;;;6339840;22;46852;-73
2023/10/13 11:55:24;;;;;;;;;13.25;9.75;;;;;;;;6341538;22;45246;-73
2023/10/13 11:57:49;;;;;;;;;14.25;12.75;;;;;;;;6341119;22;45290;-73
2023/10/13 12:05:49;;;;;;;;;15.00;9.00;;;;;;;;6341383;22;45306;-72
2023/10/13 12:08:21;;;;;;;;;12.75;10.25;;;;;;;;6340623;22;45277;-73
2023/10/13 12:10:59;;;;;;;;;10.25;10.25;;;;;;;;6339901;22;45217;-72
2023/10/13 12:13:24;;;;;;;;;8.20;8.20;;;;;;;;6341218;22;45347;-73
2023/10/13 12:15:52;;;;;;;;;11.50;10.00;;;;;;;;6341699;22;45151;-73
2023/10/13 12:18:19;;;;;;;;;9.50;9.50;;;;;;;;6312449;22;45290;-73
2023/10/13 12:20:45;;;;;;;;;11.75;6.00;;;;;;;;6340630;22;45895;-73
2023/10/13 12:23:15;;;;;;;;;11.00;9.75;;;;;;;;6337902;22;46241;-72
2023/10/13 12:26:00;;;;;;;;;10.80;8.40;;;;;;;;6341346;22;45113;-73
2023/10/13 12:28:28;;;;;;;;;8.75;7.75;;;;;;;;6340559;22;45276;-73
2023/10/13 12:30:57;;;;;;;;;10.00;8.00;;;;;;;;6341405;22;45183;-72
2023/10/13 12:33:25;;;;;;;;;9.20;8.00;;;;;;;;6340559;22;46022;-73
2023/10/13 12:52:16;;;;;;;;;11.50;10.25;;;;;;;;6340461;22;45169;-73
2023/10/13 12:54:58;;;;;;;;;11.50;9.25;;;;;;;;6341309;22;45249;-73
2023/10/13 12:57:23;;;;;;;;;17.20;12.80;;;;;;;;6341136;22;45335;-72
2023/10/13 12:59:49;;;;;;;;;17.75;16.25;;;;;;;;6342189;22;45228;-73
2023/10/13 13:02:17;;;;;;;;;18.00;17.50;;;;;;;;6312014;22;45703;-74
2023/10/13 13:04:45;;;;;;;;;25.75;18.25;;;;;;;;6341603;22;46462;-73
2023/10/13 13:07:13;;;;;;;;;19.20;17.40;;;;;;;;6340150;22;45223;-73
2023/10/13 13:09:42;;;;;;;;;19.00;17.25;;;;;;;;6341899;22;45257;-73
2023/10/13 13:12:07;;;;;;;;;15.50;14.75;;;;;;;;6312746;22;47361;-74
2023/10/13 13:14:34;;;;;;;;;15.50;12.75;;;;;;;;6312868;22;46042;-74
2023/10/13 13:17:05;;;;;;;;;17.20;12.80;;;;;;;;6313127;22;45671;-74
2023/10/13 13:19:36;;;;;;;;;16.00;11.25;;;;;;;;6313083;22;45299;-74
2023/10/13 13:22:02;;;;;;;;;13.25;10.25;;;;;;;;6340051;22;45504;-74
2023/10/13 13:24:29;;;;;;;;;14.00;11.00;;;;;;;;6312657;22;46116;-74
2023/10/13 13:26:55;;;;;;;;;10.60;7.80;;;;;;;;6341055;22;45253;-73
2023/10/13 13:29:20;;;;;;;;;11.25;7.75;;;;;;;;6342094;22;45266;-73
2023/10/13 13:31:46;;;;;;;;;10.00;8.25;;;;;;;;6340588;22;45750;-73
2023/10/13 13:34:14;;;;;;;;;7.75;7.75;;;;;;;;6339874;22;46545;-73
2023/10/13 13:36:44;;;;;;;;;11.60;10.00;;;;;;;;6313010;22;45326;-72
2023/10/13 13:39:10;;;;;;;;;12.25;11.25;;;;;;;;6340804;22;45275;-73
2023/10/13 13:41:35;;;;;;;;;12.00;9.00;;;;;;;;6340979;22;45276;-73
2023/10/13 13:44:13;;;;;;;;;9.50;9.25;;;;;;;;6340558;22;45282;-74
2023/10/13 13:46:41;;;;;;;;;11.20;10.60;;;;;;;;6341578;22;45407;-72
2023/10/13 13:49:07;;;;;;;;;11.75;11.00;;;;;;;;6340917;22;45238;-73
2023/10/13 13:51:33;;;;;;;;;11.25;8.75;;;;;;;;6340634;22;45237;-74
2023/10/13 13:53:59;;;;;;;;;9.50;8.00;;;;;;;;6312483;22;46351;-74
2023/10/13 13:56:25;;;;;;;;;13.00;11.00;;;;;;;;6340912;22;45306;-73
2023/10/13 13:58:51;;;;;;;;;14.75;9.75;;;;;;;;6341046;22;45229;-72
2023/10/13 14:01:19;;;;;;;;;12.75;10.75;;;;;;;;6340708;22;45552;-72
2023/10/13 14:03:50;;;;;;;;;8.75;7.00;;;;;;;;6312089;22;47168;-73
2023/10/13 14:06:18;;;;;;;;;10.20;10.20;;;;;;;;6340074;22;45196;-73
2023/10/13 14:08:48;;;;;;;;;10.50;10.00;;;;;;;;6312114;22;45254;-72
2023/10/13 14:14:11;;;;;;;;;14.50;10.25;;;;;;;;6259945;22;45497;-73
2023/10/13 14:16:37;;;;;;;;;12.50;10.75;;;;;;;;6311921;22;45255;-73
2023/10/13 14:19:07;;;;;;;;;12.25;10.75;;;;;;;;6340749;22;45155;-73
2023/10/13 14:21:33;;;;;;;;;10.75;10.00;;;;;;;;6339329;22;45228;-73
2023/10/13 14:24:00;;;;;;;;;10.00;10.00;;;;;;;;6339890;22;45322;-73
2023/10/13 14:26:25;;;;;;;;;13.00;10.00;;;;;;;;6338906;22;45283;-73
2023/10/13 14:29:09;;;;;;;;;13.50;11.50;;;;;;;;6311671;22;45383;-72
2023/10/13 14:31:39;;;;;;;;;10.50;9.00;;;;;;;;6311861;22;45306;-72
2023/10/13 14:34:04;;;;;;;;;11.00;11.00;;;;;;;;6340780;22;47369;-72
2023/10/13 14:36:34;;;;;;;;;9.25;6.50;;;;;;;;6340447;22;45266;-73
2023/10/13 14:38:59;;;;;;;;;11.50;10.00;;;;;;;;6339920;22;45184;-73
2023/10/13 14:41:24;;;;;;;;;13.25;10.75;;;;;;;;6340147;22;45243;-72
2023/10/13 14:43:50;;;;;;;;;9.75;8.50;;;;;;;;6340160;22;46238;-72
2023/10/13 14:46:15;;;;;;;;;11.00;10.75;;;;;;;;6340637;22;45274;-73
2023/10/13 14:48:41;;;;;;;;;15.25;12.00;;;;;;;;6340536;22;45280;-74
2023/10/13 14:51:18;;;;;;;;;12.75;11.00;;;;;;;;6340579;22;45270;-73
2023/10/13 14:53:44;;;;;;;;;11.75;9.00;;;;;;;;6340126;22;46271;-73
2023/10/13 14:56:13;;;;;;;;;14.00;10.00;;;;;;;;6340013;22;45230;-73
2023/10/13 14:58:45;;;;;;;;;11.50;11.25;;;;;;;;6311945;22;45281;-73
2023/10/13 15:01:15;;;;;;;;;12.75;11.75;;;;;;;;6340549;22;45388;-72
2023/10/13 15:03:40;;;;;;;;;9.00;8.00;;;;;;;;6340042;22;46471;-73
2023/10/13 15:06:06;;;;;;;;;12.75;10.50;;;;;;;;6340582;22;45468;-73
2023/10/13 15:08:31;;;;;;;;;12.00;12.00;;;;;;;;6339872;22;45425;-73
2023/10/13 15:10:58;;;;;;;;;13.00;11.25;;;;;;;;6312339;22;45426;-73
2023/10/13 15:13:24;;;;;;;;;15.00;11.00;;;;;;;;6311305;22;47054;-73
2023/10/13 15:15:49;;;;;;;;;16.00;13.00;;;;;;;;6312174;22;45188;-72
2023/10/13 15:18:14;;;;;;;;;14.75;13.75;;;;;;;;6340349;22;45482;-72
2023/10/13 15:20:43;;;;;;;;;9.50;9.50;;;;;;;;6308446;22;45674;-73
2023/10/13 15:23:12;;;;;;;;;11.75;11.25;;;;;;;;6336019;22;45753;-73
2023/10/13 15:25:49;;;;;;;;;15.25;13.25;;;;;;;;6340305;22;45241;-73
2023/10/13 15:28:14;;;;;;;;;15.25;13.25;;;;;;;;6339988;22;45235;-72
2023/10/13 15:30:44;;;;;;;;;13.25;11.75;;;;;;;;6340061;22;45541;-72
2023/10/13 15:33:11;;;;;;;;;13.25;12.50;;;;;;;;6338001;22;45339;-73
2023/10/13 15:35:38;;;;;;;;;14.00;11.25;;;;;;;;6339047;22;45376;-72
2023/10/13 15:38:03;;;;;;;;;13.25;12.50;;;;;;;;6339411;22;45192;-73
2023/10/13 15:40:28;;;;;;;;;16.25;14.00;;;;;;;;6339887;22;45192;-72
2023/10/13 15:42:59;;;;;;;;;16.50;13.50;;;;;;;;6339665;22;45188;-73
2023/10/13 15:45:24;;;;;;;;;11.00;11.00;;;;;;;;6311517;22;45310;-73
2023/10/13 15:47:49;;;;;;;;;14.75;13.25;;;;;;;;6339907;22;45199;-72
2023/10/13 15:50:16;;;;;;;;;15.25;14.25;;;;;;;;6311817;22;45504;-72
2023/10/13 15:52:48;;;;;;;;;13.00;13.00;;;;;;;;6339228;22;46029;-73
2023/10/13 15:55:19;;;;;;;;;15.50;12.50;;;;;;;;6338814;22;45292;-72
2023/10/13 15:57:44;;;;;;;;;10.25;10.25;;;;;;;;6339163;22;45433;-73
2023/10/13 16:00:23;;;;;;;;;9.75;8.75;;;;;;;;6339426;22;45360;-72
2023/10/13 16:02:54;;;;;;;;;15.50;12.00;;;;;;;;6339636;22;45400;-72
2023/10/13 16:05:22;;;;;;;;;19.75;14.25;;;;;;;;6339844;22;45164;-72
2023/10/13 16:07:48;;;;;;;;;11.50;7.00;;;;;;;;6340921;22;45326;-72
2023/10/13 16:10:13;;;;;;;;;13.50;11.50;;;;;;;;6341877;22;45230;-73
2023/10/13 16:12:38;;;;;;;;;13.50;12.00;;;;;;;;6340991;22;45215;-73
2023/10/13 16:15:08;;;;;;;;;10.00;10.00;;;;;;;;6341291;22;45219;-72
2023/10/13 16:17:33;;;;;;;;;11.25;9.25;;;;;;;;6341142;22;45089;-72
2023/10/13 16:19:58;;;;;;;;;17.00;12.25;;;;;;;;6341009;22;45350;-73
2023/10/13 16:22:23;;;;;;;;;16.50;14.00;;;;;;;;6340067;22;46445;-72
2023/10/13 16:24:48;;;;;;;;;18.75;13.50;;;;;;;;6312845;22;45266;-72
2023/10/13 16:27:14;;;;;;;;;14.25;12.00;;;;;;;;6341238;22;45433;-72
2023/10/13 16:29:42;;;;;;;;;10.25;10.25;;;;;;;;6340957;22;45223;-72
2023/10/13 16:32:08;;;;;;;;;15.00;13.75;;;;;;;;6311810;22;47684;-72
2023/10/13 16:34:34;;;;;;;;;11.50;11.00;;;;;;;;6341338;22;45182;-73
2023/10/13 16:37:04;;;;;;;;;13.75;11.50;;;;;;;;6340980;22;45555;-73
2023/10/13 16:39:30;;;;;;;;;13.25;13.25;;;;;;;;6340531;22;45461;-72
2023/10/13 16:41:55;;;;;;;;;17.25;14.00;;;;;;;;6338743;22;45189;-72
2023/10/13 16:44:27;;;;;;;;;15.33;15.00;;;;;;;;6341264;22;45255;-73
2023/10/13 16:46:56;;;;;;;;;23.33;18.67;;;;;;;;6340295;22;45247;-72
2023/10/13 16:49:22;;;;;;;;;16.75;15.25;;;;;;;;6339969;22;45227;-73
2023/10/13 16:51:47;;;;;;;;;84.00;77.00;;;;;;;;6340347;22;45242;-72
2023/10/13 16:54:12;;;;;;;;;23.33;22.33;;;;;;;;6341263;22;45385;-73
2023/10/13 16:56:38;;;;;;;;;20.25;17.50;;;;;;;;6341290;22;45342;-72
2023/10/13 16:59:07;;;;;;;;;18.00;15.25;;;;;;;;6340963;22;45353;-72
2023/10/13 17:01:32;;;;;;;;;9.75;9.75;;;;;;;;6340443;22;45997;-72
2023/10/13 17:03:57;;;;;;;;;12.00;7.67;;;;;;;;6340530;22;45272;-72
2023/10/13 17:06:23;;;;;;;;;16.75;13.00;;;;;;;;6340801;22;45146;-73
2023/10/13 17:08:48;;;;;;;;;17.50;14.00;;;;;;;;6340398;22;45140;-72
2023/10/13 17:11:13;;;;;;;;;17.25;14.00;;;;;;;;6340604;22;46498;-72
2023/10/13 17:13:40;;;;;;;;;17.33;16.33;;;;;;;;6340753;22;45334;-73
2023/10/13 17:16:21;;;;;;;;;19.00;18.00;;;;;;;;6339365;22;45175;-72
2023/10/13 17:18:47;;;;;;;;;23.67;18.00;;;;;;;;6311837;22;45529;-72
2023/10/13 17:21:21;;;;;;;;;22.00;18.00;;;;;;;;6340558;22;46173;-72
2023/10/13 17:23:50;;;;;;;;;20.00;18.00;;;;;;;;6340639;22;45290;-72
2023/10/13 17:26:16;;;;;;;;;22.33;20.33;;;;;;;;6338769;22;45223;-73
2023/10/13 17:28:42;;;;;;;;;22.67;21.00;;;;;;;;6311837;22;47275;-72
2023/10/13 17:31:08;;;;;;;;;19.00;16.00;;;;;;;;6340779;22;45984;-72
2023/10/13 17:33:38;;;;;;;;;24.67;23.67;;;;;;;;6339632;22;45341;-72
2023/10/13 17:36:06;;;;;;;;;27.33;23.67;;;;;;;;6340874;22;45220;-72
2023/10/13 17:38:31;;;;;;;;;17.67;16.67;;;;;;;;6340156;22;45137;-73
2023/10/13 17:40:59;;;;;;;;;29.33;25.33;;;;;;;;6340852;22;45264;-73
2023/10/13 17:43:24;;;;;;;;;27.67;23.67;;;;;;;;6340829;22;45300;-72
2023/10/13 17:45:49;;;;;;;;;36.00;30.67;;;;;;;;6340895;22;45199;-72
2023/10/13 17:48:15;;;;;;;;;25.33;24.67;;;;;;;;6341958;22;45179;-72
2023/10/13 17:50:40;;;;;;;;;39.33;30.33;;;;;;;;6314823;22;45586;-72
2023/10/13 17:53:05;;;;;;;;;45.33;37.33;;;;;;;;6342366;22;45207;-72
2023/10/13 17:55:32;;;;;;;;;43.33;36.00;;;;;;;;6344569;22;45233;-73
2023/10/13 17:57:58;;;;;;;;;41.00;33.00;;;;;;;;6317377;22;45220;-72
2023/10/13 18:00:24;;;;;;;;;46.67;38.33;;;;;;;;6344490;22;46954;-73
2023/10/13 18:02:53;;;;;;;;;49.00;39.33;;;;;;;;6343002;22;45140;-73
2023/10/13 18:05:19;;;;;;;;;50.00;42.33;;;;;;;;6345852;22;45262;-73
2023/10/13 18:07:44;;;;;;;;;52.33;42.00;;;;;;;;6343293;22;45219;-71
2023/10/13 18:10:12;;;;;;;;;50.33;41.33;;;;;;;;6343815;22;46024;-73
2023/10/13 18:12:38;;;;;;;;;50.00;42.33;;;;;;;;6344224;22;45286;-73
2023/10/13 18:15:13;;;;;;;;;53.00;44.00;;;;;;;;6344705;22;45212;-74
2023/10/13 18:17:39;;;;;;;;;54.00;43.00;;;;;;;;6315916;22;45814;-73
2023/10/13 18:20:10;;;;;;;;;57.67;47.33;;;;;;;;6343562;22;45982;-74
2023/10/13 18:22:39;;;;;;;;;54.67;45.00;;;;;;;;6342005;22;45684;-72
2023/10/13 18:25:11;;;;;;;;;55.67;44.00;;;;;;;;6343440;22;45261;-72
2023/10/13 18:27:38;;;;;;;;;49.00;40.67;;;;;;;;6342811;22;45282;-72
2023/10/13 18:30:04;;;;;;;;;54.33;45.33;;;;;;;;6316923;22;48173;-72
2023/10/13 18:32:29;;;;;;;;;53.33;41.67;;;;;;;;6316875;22;45224;-72
2023/10/13 18:34:55;;;;;;;;;56.33;45.00;;;;;;;;6346551;22;45077;-71
2023/10/13 18:37:20;;;;;;;;;57.33;45.00;;;;;;;;6316575;22;45175;-73
2023/10/13 18:39:47;;;;;;;;;52.33;43.67;;;;;;;;6344238;22;45293;-73
2023/10/13 18:42:12;;;;;;;;;55.33;44.00;;;;;;;;6343853;22;45268;-73
2023/10/13 18:44:40;;;;;;;;;58.00;45.00;;;;;;;;6316763;22;45276;-73
2023/10/13 18:47:08;;;;;;;;;55.00;44.33;;;;;;;;6315997;22;45390;-73
2023/10/13 18:49:33;;;;;;;;;56.00;44.00;;;;;;;;6343822;22;45120;-73
2023/10/13 18:51:58;;;;;;;;;49.67;40.00;;;;;;;;6344652;22;44569;-71
2023/10/13 18:54:23;;;;;;;;;51.33;42.67;;;;;;;;6344279;22;45137;-73
2023/10/13 18:56:51;;;;;;;;;45.67;38.67;;;;;;;;6343064;22;45086;-71
2023/10/13 18:59:18;;;;;;;;;38.33;33.00;;;;;;;;6343822;22;46512;-73
2023/10/13 19:01:45;;;;;;;;;49.00;41.67;;;;;;;;6342564;22;45248;-73
2023/10/13 19:04:12;;;;;;;;;47.00;37.33;;;;;;;;6343034;22;45205;-73
2023/10/13 19:06:37;;;;;;;;;49.00;39.67;;;;;;;;6314290;22;45969;-73
2023/10/13 19:09:08;;;;;;;;;48.00;38.67;;;;;;;;6343550;22;46513;-72
2023/10/13 19:11:37;;;;;;;;;39.00;34.67;;;;;;;;6343474;22;45335;-72
2023/10/13 19:14:03;;;;;;;;;47.67;37.33;;;;;;;;6316128;22;45315;-72
2023/10/13 19:16:29;;;;;;;;;43.33;37.33;;;;;;;;6341483;22;45232;-73
2023/10/13 19:18:58;;;;;;;;;44.00;36.33;;;;;;;;6344724;22;46047;-72
2023/10/13 19:21:24;;;;;;;;;45.67;37.00;;;;;;;;6343951;22;45258;-73
2023/10/13 19:23:50;;;;;;;;;37.33;32.33;;;;;;;;6343131;22;45343;-72
2023/10/13 19:26:16;;;;;;;;;41.33;33.00;;;;;;;;6315596;22;46514;-73
2023/10/13 19:28:42;;;;;;;;;42.67;34.67;;;;;;;;6343406;22;45239;-72
2023/10/13 19:31:15;;;;;;;;;44.00;34.00;;;;;;;;6343499;22;45203;-73
2023/10/13 19:33:44;;;;;;;;;43.00;36.00;;;;;;;;6343177;22;45412;-73
2023/10/13 19:36:13;;;;;;;;;34.67;31.00;;;;;;;;6343142;22;45255;-72
2023/10/13 19:38:41;;;;;;;;;36.33;31.67;;;;;;;;6343296;22;45278;-72
2023/10/13 19:41:19;;;;;;;;;35.67;31.00;;;;;;;;6345282;22;45262;-72
2023/10/13 19:43:46;;;;;;;;;31.33;29.67;;;;;;;;6345275;22;45112;-72
2023/10/13 19:46:17;;;;;;;;;23.00;22.67;;;;;;;;6343655;22;45417;-72
2023/10/13 19:48:43;;;;;;;;;26.67;24.67;;;;;;;;6344118;22;45285;-72
2023/10/13 19:51:10;;;;;;;;;23.33;20.00;;;;;;;;6341328;22;45757;-72
2023/10/13 19:53:38;;;;;;;;;13.00;11.33;;;;;;;;6341222;22;45420;-73
2023/10/13 19:56:04;;;;;;;;;18.33;15.67;;;;;;;;6341279;22;45429;-72
2023/10/13 19:58:30;;;;;;;;;9.00;5.00;;;;;;;;6312426;22;47145;-72
2023/10/13 20:00:55;;;;;;;;;12.00;10.33;;;;;;;;6341220;22;45329;-73
2023/10/13 20:03:23;;;;;;;;;10.33;8.00;;;;;;;;6341721;22;45478;-72
2023/10/13 20:05:48;;;;;;;;;7.33;6.33;;;;;;;;6341721;22;45283;-72
2023/10/13 20:08:14;;;;;;;;;4.00;4.00;;;;;;;;6340763;22;46402;-72
2023/10/13 20:10:39;;;;;;;;;7.00;3.00;;;;;;;;6312046;22;45285;-72
2023/10/13 20:13:05;;;;;;;;;4.00;2.00;;;;;;;;6341412;22;45192;-73
2023/10/13 20:15:31;;;;;;;;;4.00;3.00;;;;;;;;6341595;22;45473;-72
2023/10/13 20:17:56;;;;;;;;;2.75;2.75;;;;;;;;6312440;22;46148;-73
2023/10/13 20:20:27;;;;;;;;;3.00;1.75;;;;;;;;6340714;22;45164;-71
2023/10/13 20:22:53;;;;;;;;;5.25;2.75;;;;;;;;6287235;22;45240;-71
2023/10/13 20:25:19;;;;;;;;;2.50;2.25;;;;;;;;6340702;22;45163;-71
2023/10/13 20:27:44;;;;;;;;;1.75;0.00;;;;;;;;6340646;22;46104;-71
2023/10/13 20:30:10;;;;;;;;;2.75;1.50;;;;;;;;6339231;22;45201;-71
2023/10/13 20:32:35;;;;;;;;;3.25;2.25;;;;;;;;6341032;22;45279;-71
2023/10/13 20:35:02;;;;;;;;;3.75;3.00;;;;;;;;6340664;22;45572;-71
2023/10/13 20:37:29;;;;;;;;;3.25;3.00;;;;;;;;6312113;22;48096;-71
2023/10/13 20:39:54;;;;;;;;;6.67;4.67;;;;;;;;6312691;22;45678;-71
2023/10/13 20:42:20;;;;;;;;;4.00;4.00;;;;;;;;6311928;22;45301;-72
2023/10/13 20:44:45;;;;;;;;;9.33;8.00;;;;;;;;6341332;22;45420;-71
2023/10/13 20:47:10;;;;;;;;;4.67;4.00;;;;;;;;6341002;22;46201;-71
2023/10/13 20:49:36;;;;;;;;;5.50;4.00;;;;;;;;6341172;22;45216;-71
2023/10/13 20:52:04;;;;;;;;;4.00;2.00;;;;;;;;6340285;22;45258;-71
2023/10/13 20:54:30;;;;;;;;;5.50;2.00;;;;;;;;6338634;22;45226;-71
2023/10/13 20:56:55;;;;;;;;;4.75;4.75;;;;;;;;6340851;22;45203;-71
2023/10/13 20:59:20;;;;;;;;;5.67;4.33;;;;;;;;6313024;22;45168;-71
2023/10/13 21:01:46;;;;;;;;;3.75;3.50;;;;;;;;6312274;22;45337;-71
2023/10/13 21:04:11;;;;;;;;;3.50;3.00;;;;;;;;6340813;22;45393;-71
2023/10/13 21:06:40;;;;;;;;;9.67;4.00;;;;;;;;6340289;22;45226;-71
2023/10/13 21:09:06;;;;;;;;;4.33;4.33;;;;;;;;6340488;22;45255;-70
2023/10/13 21:11:31;;;;;;;;;3.67;3.33;;;;;;;;6312193;22;45509;-71
2023/10/13 21:13:56;;;;;;;;;6.33;4.00;;;;;;;;6340883;22;45275;-72
2023/10/13 21:16:22;;;;;;;;;3.00;3.00;;;;;;;;6341178;22;45349;-71
2023/10/13 21:18:48;;;;;;;;;7.00;4.00;;;;;;;;6340070;22;45302;-71
2023/10/13 21:21:20;;;;;;;;;4.00;2.33;;;;;;;;6340858;22;45191;-71
2023/10/13 21:23:46;;;;;;;;;1.67;1.33;;;;;;;;6340056;22;45317;-71
2023/10/13 21:26:18;;;;;;;;;2.00;2.00;;;;;;;;6338989;22;46059;-71
2023/10/13 21:28:44;;;;;;;;;2.75;2.75;;;;;;;;6340523;22;45361;-71
2023/10/13 21:31:11;;;;;;;;;2.33;2.33;;;;;;;;6341365;22;45223;-72
2023/10/13 21:33:40;;;;;;;;;3.00;2.00;;;;;;;;6340446;22;45295;-71
2023/10/13 21:36:08;;;;;;;;;4.00;2.00;;;;;;;;6338603;22;45315;-71
2023/10/13 21:38:34;;;;;;;;;4.67;3.67;;;;;;;;6340271;22;45329;-71
2023/10/13 21:41:05;;;;;;;;;3.00;3.00;;;;;;;;6341225;22;45511;-71
2023/10/13 21:43:30;;;;;;;;;4.25;2.00;;;;;;;;6340666;22;44897;-71
2023/10/13 21:45:57;;;;;;;;;1.00;1.00;;;;;;;;6340132;22;46040;-72
2023/10/13 21:48:23;;;;;;;;;1.25;1.25;;;;;;;;6312576;22;45206;-71
2023/10/13 21:50:48;;;;;;;;;1.25;1.25;;;;;;;;6339384;22;45113;-71